< < Back
Terminal Aerodrome Forecast


Current Version              Previous Versions:   1  2  3  4  5  6  7  8  9  

Terminal Aerodrome Forecast

941
FTUS42 KFFC 251731
TAFPDK
TAF
KPDK 251731Z 2518/2618 19008KT P6SM BKN015 BKN050
     FM252000 22010G18KT P6SM SCT030 BKN050
      TEMPO 2522/2602 VRB12G22KT 3SM TSRA BKN020CB
     FM260200 23008KT P6SM BKN040
     FM260800 24008KT 5SM BR BKN012 BKN035
     FM261300 28010KT P6SM BKN020
     FM261600 29012G22KT P6SM BKN045=

Latest METAR

859
SAUS70 KWBC 252000 RRE
MTRPDK
METAR KPDK 251953Z 23010G17KT 10SM SCT026 BKN033 24/19 A2971 RMK AO2
SLP050 T02440189


USA.gov is the U.S. government's official web portal to all federal, state and local government web resources and services.